Time;durP1;ratioP1;P1;durP2;ratioP2;P2;SDS_P1;SDS_P2;PMS_P1;PMS_P2;Temp;Humidity;BMP_temperature;BMP_pressure;BME280_temperature;BME280_humidity;BME280_pressure;Samples;Min_cycle;Max_cycle;Signal;HPM_P1;HPM_P2
2023/01/23 00:00:24;;;;;;;16.90;10.70;;;;;;;-1.05;100.00;96598.16;5036302;28;20221;-80
2023/01/23 00:02:49;;;;;;;14.47;9.40;;;;;;;-1.01;100.00;96601.41;5048640;28;20227;-79
2023/01/23 00:05:15;;;;;;;15.27;9.77;;;;;;;-1.01;100.00;96594.59;5051900;28;20188;-79
2023/01/23 00:07:40;;;;;;;13.50;9.17;;;;;;;-1.03;100.00;96601.47;5047573;28;20225;-79
2023/01/23 00:10:06;;;;;;;14.60;10.30;;;;;;;-1.03;100.00;96595.53;5034867;28;20239;-79
2023/01/23 00:12:31;;;;;;;15.87;9.97;;;;;;;-1.08;100.00;96607.59;5035904;28;20223;-78
2023/01/23 00:14:56;;;;;;;13.73;10.00;;;;;;;-1.15;100.00;96599.31;5034141;28;20286;-80
2023/01/23 00:17:25;;;;;;;15.43;9.80;;;;;;;-1.02;100.00;96597.22;5042346;28;20627;-79
2023/01/23 00:19:52;;;;;;;14.63;9.70;;;;;;;-1.02;100.00;96592.94;5048682;28;20225;-80
2023/01/23 00:22:18;;;;;;;18.97;10.77;;;;;;;-1.15;100.00;96596.75;5052237;28;20248;-78
2023/01/23 00:24:43;;;;;;;17.40;9.97;;;;;;;-1.08;100.00;96593.13;5034624;28;20193;-79
2023/01/23 00:27:08;;;;;;;16.40;10.67;;;;;;;-0.89;100.00;96591.63;5033900;28;20198;-79
2023/01/23 00:29:33;;;;;;;18.13;11.80;;;;;;;-1.11;100.00;96590.69;5033702;28;20210;-79
2023/01/23 00:31:59;;;;;;;19.20;11.23;;;;;;;-1.10;100.00;96586.44;5036951;28;20205;-79
2023/01/23 00:34:24;;;;;;;16.87;10.37;;;;;;;-1.04;100.00;96581.97;5042841;28;20188;-79
2023/01/23 00:36:49;;;;;;;15.13;10.30;;;;;;;-1.10;100.00;96582.16;5047858;28;20202;-78
2023/01/23 00:39:17;;;;;;;15.63;10.90;;;;;;;-1.07;100.00;96584.59;5036062;28;20209;-80
2023/01/23 00:41:44;;;;;;;22.37;12.30;;;;;;;-1.12;100.00;96585.66;5047345;28;20197;-79
2023/01/23 00:44:09;;;;;;;16.97;10.87;;;;;;;-1.13;100.00;96584.81;5027962;28;20286;-80
2023/01/23 00:46:34;;;;;;;15.73;10.10;;;;;;;-1.22;100.00;96577.50;5037420;28;20218;-79
2023/01/23 00:49:00;;;;;;;15.80;10.17;;;;;;;-1.14;100.00;96588.25;5037523;28;20206;-78
2023/01/23 00:51:25;;;;;;;19.50;11.97;;;;;;;-1.04;100.00;96588.78;5034343;28;20248;-80
2023/01/23 00:53:50;;;;;;;18.93;10.73;;;;;;;-1.07;100.00;96592.25;5048010;28;20236;-80
2023/01/23 00:56:16;;;;;;;13.63;9.23;;;;;;;-1.19;100.00;96585.84;5034252;28;20676;-79
2023/01/23 00:58:41;;;;;;;13.70;9.33;;;;;;;-1.00;100.00;96586.06;5035572;28;20729;-80
2023/01/23 01:01:07;;;;;;;12.43;9.33;;;;;;;-1.16;100.00;96590.00;5034247;28;20212;-79
2023/01/23 01:03:33;;;;;;;12.70;10.20;;;;;;;-1.16;100.00;96592.56;5036349;28;20194;-79
2023/01/23 01:05:59;;;;;;;13.67;8.67;;;;;;;-1.31;100.00;96593.09;5033431;28;20189;-79
2023/01/23 01:08:24;;;;;;;13.73;8.70;;;;;;;-1.28;100.00;96598.06;5041680;28;20554;-79
2023/01/23 01:10:50;;;;;;;13.37;9.63;;;;;;;-1.18;100.00;96597.72;5032923;28;20210;-79
2023/01/23 01:13:20;;;;;;;14.63;10.33;;;;;;;-1.23;100.00;96591.94;5047902;28;20189;-79
2023/01/23 01:15:45;;;;;;;14.73;10.13;;;;;;;-1.24;100.00;96599.63;5030287;28;20613;-79
2023/01/23 01:18:10;;;;;;;15.40;10.70;;;;;;;-1.21;100.00;96604.63;5041337;28;20190;-80
2023/01/23 01:20:39;;;;;;;15.60;11.40;;;;;;;-1.11;100.00;96598.34;5035487;28;20223;-80
2023/01/23 01:23:05;;;;;;;17.77;11.50;;;;;;;-1.20;100.00;96606.28;5035557;28;20222;-79
2023/01/23 01:25:30;;;;;;;14.70;10.47;;;;;;;-1.19;100.00;96600.31;5042437;28;20252;-81
2023/01/23 01:27:55;;;;;;;15.63;10.40;;;;;;;-1.15;100.00;96599.31;5047586;28;20276;-79
2023/01/23 01:30:21;;;;;;;16.13;11.20;;;;;;;-1.02;100.00;96612.50;5033662;28;20564;-79
2023/01/23 01:32:47;;;;;;;15.30;10.00;;;;;;;-1.16;100.00;96616.31;5047403;28;20225;-80
2023/01/23 01:35:12;;;;;;;15.87;10.40;;;;;;;-1.20;100.00;96609.69;5033850;28;20256;-78
2023/01/23 01:37:39;;;;;;;15.50;10.90;;;;;;;-1.02;100.00;96612.50;5019969;28;20186;-79
2023/01/23 01:40:06;;;;;;;16.97;11.03;;;;;;;-1.08;100.00;96608.44;5036756;28;20239;-79
2023/01/23 01:42:38;;;;;;;14.13;9.93;;;;;;;-1.06;100.00;96611.78;5047242;28;20194;-77
2023/01/23 01:45:03;;;;;;;15.77;10.83;;;;;;;-1.08;100.00;96613.53;5041705;28;20192;-78
2023/01/23 01:47:29;;;;;;;17.37;10.73;;;;;;;-0.97;100.00;96613.16;5037491;28;20603;-80
2023/01/23 01:50:02;;;;;;;16.83;10.53;;;;;;;-1.11;100.00;96616.19;5024570;28;20238;-80
2023/01/23 01:52:27;;;;;;;16.77;10.47;;;;;;;-0.96;100.00;96617.41;5027405;28;20207;-79
2023/01/23 01:55:05;;;;;;;16.60;11.30;;;;;;;-1.02;100.00;96623.53;5038331;28;20252;-79
2023/01/23 01:57:35;;;;;;;14.70;10.07;;;;;;;-1.01;100.00;96625.19;5048218;28;20231;-79
2023/01/23 02:00:07;;;;;;;15.03;10.23;;;;;;;-1.08;100.00;96625.44;5037174;28;20248;-80
2023/01/23 02:02:39;;;;;;;15.23;10.93;;;;;;;-1.16;100.00;96625.69;5027805;28;20196;-79
2023/01/23 02:05:13;;;;;;;16.10;10.50;;;;;;;-1.11;100.00;96625.56;5053486;28;20189;-82
2023/01/23 02:08:03;;;;;;;19.33;11.67;;;;;;;-1.25;100.00;96636.19;5047573;28;20192;-80
2023/01/23 02:10:31;;;;;;;42.57;27.27;;;;;;;-1.07;100.00;96629.66;5049056;28;20205;-79
2023/01/23 02:13:22;;;;;;;47.13;29.50;;;;;;;-1.02;100.00;96631.19;5038423;28;20188;-80
2023/01/23 02:15:47;;;;;;;22.90;15.90;;;;;;;-1.16;100.00;96628.25;5049470;28;20195;-80
2023/01/23 02:18:13;;;;;;;19.93;13.67;;;;;;;-1.22;100.00;96636.94;5026220;28;20195;-79
2023/01/23 02:20:38;;;;;;;25.73;16.97;;;;;;;-1.18;100.00;96638.50;5036259;28;20277;-79
2023/01/23 02:23:38;;;;;;;19.00;12.60;;;;;;;-1.28;100.00;96638.84;5038390;28;20241;-78
2023/01/23 02:26:09;;;;;;;17.67;11.60;;;;;;;-1.10;100.00;96630.59;5037201;28;20205;-79
2023/01/23 02:28:46;;;;;;;17.93;12.40;;;;;;;-1.20;100.00;96640.25;5037655;28;20194;-80
2023/01/23 02:31:12;;;;;;;20.77;13.13;;;;;;;-1.10;100.00;96635.69;5033532;28;20207;-80
2023/01/23 02:33:38;;;;;;;17.53;12.47;;;;;;;-1.11;100.00;96631.47;5042924;28;20194;-80
2023/01/23 02:36:05;;;;;;;19.03;12.23;;;;;;;-1.02;100.00;96633.72;5048854;28;20238;-80
2023/01/23 02:38:35;;;;;;;19.10;13.07;;;;;;;-1.09;100.00;96633.97;5037180;28;20209;-79
2023/01/23 02:41:03;;;;;;;18.20;13.30;;;;;;;-1.06;100.00;96637.28;5043174;28;20234;-80
2023/01/23 02:43:37;;;;;;;19.97;12.93;;;;;;;-0.99;100.00;96631.06;5028839;28;20200;-79
2023/01/23 02:46:04;;;;;;;21.53;13.20;;;;;;;-0.97;100.00;96631.88;5033463;28;20197;-79
2023/01/23 02:48:29;;;;;;;20.10;13.53;;;;;;;-0.97;100.00;96626.78;5034630;28;20190;-80
2023/01/23 02:50:55;;;;;;;20.80;13.40;;;;;;;-0.94;100.00;96618.19;5043305;28;20215;-79
2023/01/23 02:53:20;;;;;;;24.50;14.03;;;;;;;-1.12;100.00;96619.63;5049732;28;20584;-80
2023/01/23 02:55:45;;;;;;;25.63;13.80;;;;;;;-1.05;100.00;96618.53;5034976;28;20554;-79
2023/01/23 03:00:55;;;;;;;21.27;14.07;;;;;;;-1.06;100.00;96621.13;5041153;28;20240;-80
2023/01/23 03:03:20;;;;;;;24.03;14.20;;;;;;;-1.14;100.00;96626.50;5036052;28;20188;-80
2023/01/23 03:05:46;;;;;;;50.53;15.30;;;;;;;-1.18;100.00;96617.25;5036778;28;20182;-80
2023/01/23 03:08:11;;;;;;;30.33;15.13;;;;;;;-1.01;100.00;96630.28;5042853;28;20183;-78
2023/01/23 03:10:36;;;;;;;75.10;16.53;;;;;;;-1.33;100.00;96626.22;5036704;28;20215;-80
2023/01/23 03:13:05;;;;;;;110.90;18.07;;;;;;;-1.23;100.00;96629.34;5035387;28;20668;-80
2023/01/23 03:15:31;;;;;;;44.57;15.20;;;;;;;-1.15;100.00;96623.13;5047079;28;20596;-80
2023/01/23 03:17:56;;;;;;;25.90;14.83;;;;;;;-1.09;100.00;96622.06;5034538;28;20208;-79
2023/01/23 03:20:22;;;;;;;29.60;14.73;;;;;;;-1.13;100.00;96628.16;5035016;28;20217;-80
2023/01/23 03:22:48;;;;;;;26.93;15.57;;;;;;;-1.12;100.00;96622.19;5037307;28;20188;-80
2023/01/23 03:25:13;;;;;;;36.43;14.37;;;;;;;-1.07;100.00;96627.94;5042048;28;20188;-79
2023/01/23 03:27:38;;;;;;;107.20;17.80;;;;;;;-1.17;100.00;96621.47;5048700;28;20670;-81
2023/01/23 03:30:14;;;;;;;47.37;18.23;;;;;;;-1.15;100.00;96622.25;5035341;28;20214;-80
2023/01/23 03:32:41;;;;;;;28.27;15.53;;;;;;;-1.09;100.00;96636.53;5037055;28;20190;-80
2023/01/23 03:35:09;;;;;;;23.60;14.70;;;;;;;-0.98;100.00;96634.44;5024491;28;20654;-80
2023/01/23 03:37:34;;;;;;;101.43;22.10;;;;;;;-1.10;100.00;96622.94;5035263;28;20180;-80
2023/01/23 03:42:43;;;;;;;29.60;16.73;;;;;;;-1.04;100.00;96625.31;5043890;28;20263;-80
2023/01/23 03:45:09;;;;;;;31.33;15.10;;;;;;;-1.21;100.00;96623.31;5037382;28;20204;-80
2023/01/23 03:47:34;;;;;;;95.00;20.57;;;;;;;-1.29;100.00;96620.19;5019542;28;20201;-80
2023/01/23 03:49:59;;;;;;;28.97;16.77;;;;;;;-1.07;100.00;96619.47;5040675;28;20300;-80
2023/01/23 03:52:25;;;;;;;29.87;16.77;;;;;;;-1.06;100.00;96618.56;5035379;28;20273;-80
2023/01/23 03:54:50;;;;;;;27.10;16.30;;;;;;;-1.09;100.00;96616.97;5050638;28;20190;-80
2023/01/23 03:57:16;;;;;;;30.63;15.37;;;;;;;-0.98;100.00;96617.44;5048702;28;20199;-80
2023/01/23 03:59:41;;;;;;;27.03;14.70;;;;;;;-1.07;100.00;96622.84;5043520;28;20251;-80
2023/01/23 04:02:06;;;;;;;31.60;16.60;;;;;;;-1.17;100.00;96617.22;5036255;28;20230;-79
2023/01/23 04:04:32;;;;;;;28.63;16.97;;;;;;;-1.13;100.00;96609.50;5034232;28;20601;-80
2023/01/23 04:06:57;;;;;;;31.13;16.40;;;;;;;-1.25;100.00;96631.09;5039508;28;20188;-80
2023/01/23 04:09:26;;;;;;;37.10;16.80;;;;;;;-1.12;100.00;96617.06;5045614;28;20676;-80
2023/01/23 04:11:54;;;;;;;35.03;18.63;;;;;;;-1.02;100.00;96617.59;5036546;28;20185;-80
2023/01/23 04:14:21;;;;;;;29.93;17.83;;;;;;;-1.18;100.00;96625.75;5048603;28;20193;-80
2023/01/23 04:16:46;;;;;;;27.67;16.13;;;;;;;-1.22;100.00;96641.19;5043155;28;20182;-81
2023/01/23 04:19:12;;;;;;;33.07;16.70;;;;;;;-1.16;100.00;96636.72;5019321;28;20217;-81
2023/01/23 04:21:37;;;;;;;29.67;17.87;;;;;;;-1.02;100.00;96628.63;5017305;28;20196;-81
2023/01/23 04:24:03;;;;;;;29.60;15.67;;;;;;;-1.05;100.00;96638.94;5022838;28;20644;-81
2023/01/23 04:26:28;;;;;;;27.00;15.27;;;;;;;-0.99;100.00;96635.34;5045537;28;20211;-81
2023/01/23 04:28:53;;;;;;;28.87;16.17;;;;;;;-1.13;100.00;96638.34;5052958;28;20196;-81
2023/01/23 04:31:19;;;;;;;29.27;16.60;;;;;;;-0.97;100.00;96642.06;5048163;28;20209;-82
2023/01/23 04:33:44;;;;;;;30.37;16.07;;;;;;;-1.17;100.00;96654.63;5044492;28;20193;-81
2023/01/23 04:36:09;;;;;;;31.87;17.50;;;;;;;-1.03;100.00;96657.56;5037114;28;20218;-82
2023/01/23 04:38:35;;;;;;;27.67;16.37;;;;;;;-1.15;100.00;96661.34;5033850;28;20202;-80
2023/01/23 04:41:01;;;;;;;29.50;16.93;;;;;;;-1.12;100.00;96662.13;5052070;28;20233;-80
2023/01/23 04:43:27;;;;;;;29.40;17.30;;;;;;;-1.14;100.00;96664.72;5035685;28;20709;-80
2023/01/23 04:45:54;;;;;;;27.97;16.47;;;;;;;-1.10;100.00;96673.94;5049954;28;20199;-81
2023/01/23 04:48:19;;;;;;;29.43;17.03;;;;;;;-1.21;100.00;96674.28;5034990;28;20234;-81
2023/01/23 04:50:44;;;;;;;29.87;17.03;;;;;;;-1.04;100.00;96665.25;5034044;28;20203;-81
2023/01/23 04:53:10;;;;;;;29.37;16.63;;;;;;;-1.04;100.00;96671.19;5032824;28;20657;-81
2023/01/23 04:55:35;;;;;;;28.87;16.73;;;;;;;-1.20;100.00;96670.03;5051461;28;20225;-81
2023/01/23 04:58:01;;;;;;;34.03;18.37;;;;;;;-1.18;100.00;96674.19;5046002;28;20189;-81
2023/01/23 05:00:27;;;;;;;27.00;16.77;;;;;;;-1.14;100.00;96674.94;5040179;28;20673;-81
2023/01/23 05:02:53;;;;;;;31.93;17.67;;;;;;;-1.03;100.00;96667.75;5041766;28;20228;-82
2023/01/23 05:05:21;;;;;;;32.80;17.70;;;;;;;-1.03;100.00;96672.84;5048502;28;20192;-81
2023/01/23 05:07:47;;;;;;;32.17;17.90;;;;;;;-0.98;100.00;96668.44;5043750;28;20187;-81
2023/01/23 05:10:13;;;;;;;29.80;16.80;;;;;;;-0.97;100.00;96670.13;5037465;28;20673;-82
2023/01/23 05:12:38;;;;;;;47.93;19.07;;;;;;;-1.01;100.00;96672.81;5033704;28;20201;-81
2023/01/23 05:15:04;;;;;;;31.73;17.47;;;;;;;-1.02;100.00;96671.13;5037538;28;20197;-81
2023/01/23 05:17:30;;;;;;;34.03;18.63;;;;;;;-1.07;100.00;96671.28;5044134;28;20230;-81
2023/01/23 05:19:55;;;;;;;33.73;18.67;;;;;;;-1.14;100.00;96677.47;5038143;28;20217;-81
2023/01/23 05:22:21;;;;;;;36.20;18.53;;;;;;;-1.00;100.00;96671.91;5041653;28;20192;-81
2023/01/23 05:24:47;;;;;;;34.47;18.90;;;;;;;-1.14;100.00;96669.84;5049450;28;20727;-81
2023/01/23 05:27:12;;;;;;;32.07;18.40;;;;;;;-0.99;100.00;96669.31;5037652;28;20195;-81
2023/01/23 05:29:37;;;;;;;33.53;18.23;;;;;;;-1.06;100.00;96672.97;5036962;28;20774;-80
2023/01/23 05:32:03;;;;;;;32.17;18.43;;;;;;;-1.17;100.00;96680.09;5054528;28;20234;-81
2023/01/23 05:34:28;;;;;;;33.33;18.50;;;;;;;-1.34;100.00;96682.34;5049507;28;20208;-81
2023/01/23 05:36:53;;;;;;;33.53;17.60;;;;;;;-1.15;100.00;96675.78;5037255;28;20550;-81
2023/01/23 05:39:19;;;;;;;28.03;17.53;;;;;;;-1.12;100.00;96687.63;5051809;28;20215;-81
2023/01/23 05:41:44;;;;;;;35.07;18.80;;;;;;;-1.16;100.00;96682.59;5036324;28;20234;-80
2023/01/23 05:44:09;;;;;;;33.63;19.27;;;;;;;-1.17;100.00;96678.38;5041644;28;20199;-81
2023/01/23 05:46:34;;;;;;;32.00;18.10;;;;;;;-1.15;100.00;96686.84;5036092;28;20687;-81
2023/01/23 05:49:00;;;;;;;31.67;17.37;;;;;;;-1.13;100.00;96684.25;5041347;28;20225;-80
2023/01/23 05:51:31;;;;;;;36.87;21.33;;;;;;;-1.17;100.00;96677.56;5047987;28;20217;-81
2023/01/23 05:53:57;;;;;;;34.50;19.43;;;;;;;-1.24;100.00;96679.47;5054785;28;20195;-80
2023/01/23 05:56:22;;;;;;;34.53;20.17;;;;;;;-1.25;100.00;96682.88;5047809;28;20217;-81
2023/01/23 05:58:47;;;;;;;35.50;19.90;;;;;;;-1.20;100.00;96680.22;5036946;28;20662;-81
2023/01/23 06:01:13;;;;;;;32.97;18.70;;;;;;;-1.21;100.00;96681.09;5041134;28;20249;-81
2023/01/23 06:03:38;;;;;;;31.97;17.97;;;;;;;-1.17;100.00;96680.09;5036718;28;20285;-80
2023/01/23 06:06:03;;;;;;;32.17;18.53;;;;;;;-1.18;100.00;96678.44;5041463;28;20225;-81
2023/01/23 06:08:29;;;;;;;38.27;23.13;;;;;;;-1.25;100.00;96682.06;5054189;28;20204;-81
2023/01/23 06:10:57;;;;;;;31.43;18.00;;;;;;;-1.21;100.00;96684.47;5052020;28;20208;-80
2023/01/23 06:13:23;;;;;;;32.97;18.20;;;;;;;-1.22;100.00;96677.72;5051781;28;20633;-81
2023/01/23 06:15:48;;;;;;;32.13;18.50;;;;;;;-1.07;100.00;96681.47;5034840;28;20182;-81
2023/01/23 06:18:13;;;;;;;31.13;18.07;;;;;;;-1.00;100.00;96685.50;5041335;28;20200;-81
2023/01/23 06:20:38;;;;;;;31.63;18.17;;;;;;;-1.07;100.00;96686.56;5035960;28;20218;-79
2023/01/23 06:23:04;;;;;;;31.50;17.80;;;;;;;-1.25;100.00;96687.16;5040786;28;20202;-78
2023/01/23 06:25:29;;;;;;;32.80;19.70;;;;;;;-1.14;100.00;96687.69;5050427;28;20188;-82
2023/01/23 06:27:55;;;;;;;29.23;17.47;;;;;;;-1.09;100.00;96687.50;5054832;28;20207;-79
2023/01/23 06:30:20;;;;;;;36.33;19.00;;;;;;;-1.11;100.00;96697.75;5055581;28;20213;-83
2023/01/23 06:32:45;;;;;;;32.80;19.17;;;;;;;-1.14;100.00;96695.31;5050291;28;20566;-81
2023/01/23 06:35:11;;;;;;;31.43;17.70;;;;;;;-1.00;100.00;96703.34;5045758;28;20220;-81
2023/01/23 06:37:36;;;;;;;30.47;18.20;;;;;;;-1.10;100.00;96711.34;5040680;28;20221;-81
2023/01/23 06:40:01;;;;;;;32.73;17.93;;;;;;;-1.24;100.00;96714.31;5047000;28;20260;-80
2023/01/23 06:42:26;;;;;;;35.20;19.30;;;;;;;-1.22;100.00;96721.03;5032525;28;20196;-81
2023/01/23 06:44:52;;;;;;;31.00;18.37;;;;;;;-1.26;100.00;96721.19;5054301;28;20197;-80
2023/01/23 06:47:18;;;;;;;28.70;17.03;;;;;;;-1.11;100.00;96718.16;5056135;28;20196;-80
2023/01/23 06:49:44;;;;;;;33.30;17.37;;;;;;;-1.23;100.00;96732.13;5049181;28;20213;-80
2023/01/23 06:52:09;;;;;;;31.50;17.23;;;;;;;-1.29;100.00;96737.41;5038213;28;20198;-82
2023/01/23 06:54:34;;;;;;;34.20;18.43;;;;;;;-1.38;100.00;96731.75;5040236;28;20187;-80
2023/01/23 06:57:01;;;;;;;31.57;17.77;;;;;;;-1.25;100.00;96733.88;5051718;28;20193;-82
2023/01/23 06:59:27;;;;;;;30.13;17.20;;;;;;;-1.02;100.00;96735.72;5038319;28;20217;-82
2023/01/23 07:01:52;;;;;;;30.67;16.90;;;;;;;-1.26;100.00;96741.56;5038152;28;20190;-82
2023/01/23 07:04:17;;;;;;;30.17;16.70;;;;;;;-1.38;100.00;96741.94;5055272;28;20597;-81
2023/01/23 07:06:43;;;;;;;29.73;16.87;;;;;;;-1.32;100.00;96742.59;5048293;28;20193;-82
2023/01/23 07:09:08;;;;;;;31.03;17.60;;;;;;;-1.12;100.00;96746.25;5047315;28;20208;-82
2023/01/23 07:11:35;;;;;;;34.50;18.77;;;;;;;-1.09;100.00;96754.63;5041962;28;20306;-82
2023/01/23 07:14:01;;;;;;;33.43;17.87;;;;;;;-0.95;100.00;96749.09;5050291;28;20251;-83
2023/01/23 07:16:26;;;;;;;33.60;18.57;;;;;;;-1.09;100.00;96758.88;5045979;28;20746;-81
2023/01/23 07:18:52;;;;;;;33.50;19.40;;;;;;;-1.06;100.00;96751.13;5052620;28;20188;-82
2023/01/23 07:21:18;;;;;;;34.77;18.53;;;;;;;-1.15;100.00;96760.75;5048633;28;20221;-82
2023/01/23 07:23:43;;;;;;;31.43;16.80;;;;;;;-1.02;100.00;96765.47;5053170;28;20262;-82
2023/01/23 07:26:10;;;;;;;30.97;16.77;;;;;;;-1.01;100.00;96762.88;5026763;28;20193;-82
2023/01/23 07:28:36;;;;;;;35.30;17.87;;;;;;;-1.20;100.00;96764.31;5041032;28;20650;-83
2023/01/23 07:31:02;;;;;;;30.53;17.37;;;;;;;-1.09;100.00;96769.09;5040546;28;20197;-82
2023/01/23 07:33:27;;;;;;;38.87;19.10;;;;;;;-1.24;100.00;96770.38;5038889;28;20216;-82
2023/01/23 07:35:53;;;;;;;35.47;18.17;;;;;;;-1.20;100.00;96771.97;5041269;28;20198;-82
2023/01/23 07:38:19;;;;;;;39.17;21.17;;;;;;;-1.27;100.00;96778.13;5043518;28;20299;-81
2023/01/23 07:40:44;;;;;;;36.03;18.57;;;;;;;-1.34;100.00;96779.19;5034591;28;20218;-82
2023/01/23 07:43:10;;;;;;;38.37;20.63;;;;;;;-1.29;100.00;96774.78;5040796;28;20836;-81
2023/01/23 07:45:36;;;;;;;40.77;21.17;;;;;;;-1.13;100.00;96781.09;5039672;28;20257;-81
2023/01/23 07:48:02;;;;;;;48.30;27.83;;;;;;;-1.22;100.00;96781.38;5038867;28;20198;-82
2023/01/23 07:50:27;;;;;;;37.87;20.43;;;;;;;-1.34;100.00;96777.47;5033242;28;20208;-82
2023/01/23 07:52:53;;;;;;;37.70;19.33;;;;;;;-1.08;100.00;96775.84;5032536;28;20187;-81
2023/01/23 07:55:18;;;;;;;34.97;18.13;;;;;;;-1.00;100.00;96779.84;5034133;28;20201;-82
2023/01/23 07:57:43;;;;;;;38.47;20.53;;;;;;;-1.05;100.00;96785.97;5044050;28;20192;-78
2023/01/23 08:00:09;;;;;;;49.87;29.90;;;;;;;-1.07;100.00;96783.44;5057374;28;20314;-79
2023/01/23 08:02:36;;;;;;;38.23;23.17;;;;;;;-1.19;100.00;96783.84;5027374;28;20266;-79
2023/01/23 08:05:01;;;;;;;40.30;23.00;;;;;;;-1.24;100.00;96778.84;5051501;28;20194;-81
2023/01/23 08:07:27;;;;;;;41.03;22.30;;;;;;;-1.05;100.00;96773.22;5036622;28;20212;-79
2023/01/23 08:09:52;;;;;;;48.07;23.60;;;;;;;-0.91;100.00;96778.72;5036838;28;20738;-81
2023/01/23 08:12:17;;;;;;;37.30;20.30;;;;;;;-1.03;100.00;96774.00;5034022;28;20186;-81
2023/01/23 08:14:43;;;;;;;45.67;24.27;;;;;;;-0.92;100.00;96771.94;5038431;28;20186;-80
2023/01/23 08:17:08;;;;;;;47.07;24.33;;;;;;;-1.20;100.00;96777.91;5032680;28;20199;-81
2023/01/23 08:19:33;;;;;;;35.17;18.33;;;;;;;-0.98;100.00;96778.06;5030618;28;20219;-82
2023/01/23 08:21:59;;;;;;;38.60;18.83;;;;;;;-1.17;100.00;96777.81;5036509;28;20200;-81
2023/01/23 08:24:24;;;;;;;40.57;21.23;;;;;;;-1.28;100.00;96773.91;5031504;28;20315;-80
2023/01/23 08:26:49;;;;;;;38.33;20.30;;;;;;;-0.96;100.00;96770.41;5037080;28;20217;-81
2023/01/23 08:29:15;;;;;;;43.67;22.13;;;;;;;-0.97;100.00;96776.34;5041011;28;20329;-81
2023/01/23 08:31:40;;;;;;;37.10;21.33;;;;;;;-1.01;100.00;96773.06;5046514;28;20182;-82
2023/01/23 08:34:05;;;;;;;35.70;18.87;;;;;;;-0.97;100.00;96772.13;5043072;28;20562;-80
2023/01/23 08:36:31;;;;;;;44.03;20.93;;;;;;;-1.35;100.00;96772.41;5030301;28;20189;-81
2023/01/23 08:38:56;;;;;;;34.90;18.03;;;;;;;-1.27;100.00;96770.47;5036854;28;20233;-80
2023/01/23 08:41:22;;;;;;;38.50;20.07;;;;;;;-1.19;100.00;96773.63;5039624;28;20206;-81
2023/01/23 08:43:48;;;;;;;38.53;20.83;;;;;;;-0.98;100.00;96772.13;5023213;28;20993;-82
2023/01/23 08:46:13;;;;;;;34.97;19.13;;;;;;;-1.00;100.00;96766.25;5032634;28;20193;-81
2023/01/23 08:48:39;;;;;;;35.63;18.90;;;;;;;-0.81;100.00;96757.13;5037068;28;20210;-80
2023/01/23 08:51:07;;;;;;;37.03;18.40;;;;;;;-0.86;100.00;96764.13;5043062;28;20247;-81
2023/01/23 08:53:33;;;;;;;35.00;18.57;;;;;;;-0.75;100.00;96764.59;5032297;28;20198;-81
2023/01/23 08:56:13;;;;;;;35.67;18.43;;;;;;;-0.87;100.00;96768.38;5031859;28;20190;-81
2023/01/23 08:58:39;;;;;;;32.37;18.40;;;;;;;-0.72;100.00;96766.22;5030367;28;20176;-81
2023/01/23 09:01:04;;;;;;;32.60;17.80;;;;;;;-0.68;100.00;96760.13;5032082;28;20224;-80
2023/01/23 09:03:29;;;;;;;31.80;18.53;;;;;;;-0.71;100.00;96775.53;5031482;28;20196;-80
2023/01/23 09:05:59;;;;;;;32.67;18.40;;;;;;;-0.84;100.00;96774.25;5030203;28;20197;-81
2023/01/23 09:08:25;;;;;;;30.87;17.20;;;;;;;-0.76;100.00;96769.75;5043039;28;20186;-82
2023/01/23 09:10:50;;;;;;;30.87;17.40;;;;;;;-0.41;99.23;96768.59;5032047;28;20559;-81
2023/01/23 09:13:15;;;;;;;29.50;17.60;;;;;;;-0.64;99.17;96772.72;5031615;28;20186;-80
2023/01/23 09:15:41;;;;;;;32.03;16.33;;;;;;;-0.67;98.85;96779.66;5024089;28;20182;-82
2023/01/23 09:18:06;;;;;;;29.30;17.37;;;;;;;-0.45;98.41;96778.06;5034060;28;20188;-81
2023/01/23 09:20:31;;;;;;;30.07;17.20;;;;;;;-0.44;97.68;96784.84;5036825;28;20251;-80
2023/01/23 09:22:57;;;;;;;27.90;15.77;;;;;;;-0.38;96.67;96783.81;5036818;28;20212;-79
2023/01/23 09:25:22;;;;;;;29.00;16.13;;;;;;;-0.40;96.24;96785.59;5037868;28;20535;-81
2023/01/23 09:27:47;;;;;;;27.90;16.80;;;;;;;-0.60;97.21;96784.53;5028109;28;20201;-81
2023/01/23 09:30:13;;;;;;;31.47;17.13;;;;;;;-0.29;95.11;96797.09;5043973;28;20285;-81
2023/01/23 09:32:38;;;;;;;28.47;16.20;;;;;;;0.30;92.83;96782.31;5031686;28;20668;-81
2023/01/23 09:35:04;;;;;;;29.30;16.67;;;;;;;0.25;91.62;96796.06;5045444;28;20183;-81
2023/01/23 09:37:58;;;;;;;25.90;15.23;;;;;;;0.28;91.13;96785.75;5038041;28;20302;-81
2023/01/23 09:40:21;;;;;;;23.67;13.90;;;;;;;0.53;89.61;96782.28;5041693;28;20272;-81
2023/01/23 09:42:47;;;;;;;24.93;15.63;;;;;;;0.74;88.48;96776.41;5019054;28;20253;-80
2023/01/23 09:45:17;;;;;;;24.60;15.23;;;;;;;0.78;87.26;96772.00;5021535;28;20696;-81
2023/01/23 09:47:48;;;;;;;25.53;15.43;;;;;;;0.76;87.68;96777.16;5042085;28;20273;-80
2023/01/23 09:50:19;;;;;;;24.07;14.67;;;;;;;0.33;88.64;96775.34;5029153;28;20567;-79
2023/01/23 09:52:53;;;;;;;25.77;14.77;;;;;;;0.08;89.82;96772.00;5034772;28;20192;-80
2023/01/23 09:55:37;;;;;;;23.77;14.33;;;;;;;0.46;88.40;96780.88;5048440;28;20211;-81
2023/01/23 09:58:02;;;;;;;21.67;13.43;;;;;;;0.08;89.82;96783.06;5047149;28;20236;-82
2023/01/23 10:00:30;;;;;;;23.87;13.17;;;;;;;0.25;89.78;96785.84;5045703;28;20208;-82
2023/01/23 10:02:57;;;;;;;21.63;13.60;;;;;;;0.10;90.36;96780.47;5052215;28;20598;-81
2023/01/23 10:05:43;;;;;;;23.77;14.10;;;;;;;-0.04;90.86;96779.22;5047622;28;20556;-81
2023/01/23 10:08:20;;;;;;;20.30;12.70;;;;;;;-0.09;89.31;96783.69;5035903;28;20185;-82
2023/01/23 10:11:04;;;;;;;23.07;12.77;;;;;;;0.04;88.33;96776.41;5039061;28;20205;-81
2023/01/23 10:13:43;;;;;;;21.47;12.50;;;;;;;0.16;87.36;96781.06;5028725;28;20185;-81
2023/01/23 10:16:20;;;;;;;21.60;12.10;;;;;;;0.21;86.32;96791.13;5046963;28;20303;-82
2023/01/23 10:19:03;;;;;;;19.50;12.13;;;;;;;0.06;87.19;96791.66;5045079;28;20196;-82
2023/01/23 10:22:02;;;;;;;21.23;12.57;;;;;;;0.10;88.46;96794.06;5029577;28;20209;-82
2023/01/23 10:24:44;;;;;;;20.30;12.43;;;;;;;0.14;88.21;96794.78;5047185;28;20198;-82
2023/01/23 10:27:21;;;;;;;20.23;12.57;;;;;;;-0.13;89.89;96789.75;5048138;28;20192;-83
2023/01/23 10:29:55;;;;;;;22.97;13.80;;;;;;;0.21;89.38;96791.97;5037506;28;20200;-82
2023/01/23 10:32:30;;;;;;;21.93;13.10;;;;;;;0.17;89.23;96803.16;5042639;28;20553;-82
2023/01/23 10:34:59;;;;;;;21.73;14.03;;;;;;;-0.01;90.09;96796.16;5035547;28;20278;-82
2023/01/23 10:37:45;;;;;;;23.33;13.87;;;;;;;0.22;88.54;96796.19;5034166;28;20541;-81
2023/01/23 10:41:12;;;;;;;22.20;14.07;;;;;;;-0.17;89.98;96795.03;5050099;28;20220;-81
2023/01/23 10:43:02;;;;;;;24.07;14.00;;;;;;;-0.14;90.14;96788.09;5039975;28;20609;-82
2023/01/23 10:45:27;;;;;;;23.37;13.40;;;;;;;-0.29;90.23;96789.44;5032180;28;20197;-81
2023/01/23 10:47:52;;;;;;;23.83;14.10;;;;;;;-0.19;90.65;96800.16;5040415;28;20181;-81
2023/01/23 10:50:33;;;;;;;25.73;15.07;;;;;;;-0.05;90.76;96802.25;5034640;28;20294;-81
2023/01/23 10:53:06;;;;;;;25.90;13.97;;;;;;;-0.32;91.56;96793.81;5048011;28;20263;-82
2023/01/23 10:55:31;;;;;;;23.87;14.97;;;;;;;0.18;90.60;96786.16;5036529;28;20192;-81
2023/01/23 10:58:01;;;;;;;25.43;14.83;;;;;;;0.31;89.07;96782.25;5041583;28;20206;-82
2023/01/23 11:00:34;;;;;;;22.83;14.90;;;;;;;0.38;88.84;96786.25;5047178;28;20289;-82
2023/01/23 11:03:19;;;;;;;25.30;15.30;;;;;;;0.27;88.78;96796.03;5032503;28;20193;-82
2023/01/23 11:05:51;;;;;;;22.23;12.43;;;;;;;0.27;87.93;96789.22;5048779;28;20242;-81
2023/01/23 11:08:38;;;;;;;22.43;14.63;;;;;;;0.23;88.53;96782.53;5031876;28;20562;-80
2023/01/23 11:11:15;;;;;;;21.87;14.47;;;;;;;0.01;89.04;96778.25;5047625;28;20206;-81
2023/01/23 11:13:42;;;;;;;24.07;13.90;;;;;;;-0.06;89.50;96777.63;5040576;28;20231;-81
2023/01/23 11:16:20;;;;;;;26.17;15.37;;;;;;;-0.01;90.30;96783.38;5049205;28;20191;-82
2023/01/23 11:19:01;;;;;;;25.00;15.67;;;;;;;0.10;90.56;96788.97;5046242;28;20193;-80